Saint Bonnet de Bellac- Haute Vienne - France
Donnes mto: dimanche, 22/04/2012
Date Horaire Temp. E. Hum. E. P.atmo. Pluie Vent Direction Direction Ensoleilleme Solaire P. de rose Temp au vent Rafales
22/04/2012 00:00 6,3 C 87 % 1010,8 hPa 0,0 mm 11,2 km/h (2 Bft) SO 225 0 min 0 W/m 4,3 C 4,0 C 17,3 km/h (3 Bft)
22/04/2012 00:10 6,3 C 87 % 1010,9 hPa 0,0 mm 3,6 km/h (1 Bft) SO 225 0 min 0 W/m 4,3 C 6,3 C 8,6 km/h (2 Bft)
22/04/2012 00:20 6,2 C 88 % 1011,0 hPa 0,0 mm 7,6 km/h (2 Bft) SO 225 0 min 0 W/m 4,4 C 4,6 C 9,0 km/h (2 Bft)
22/04/2012 00:30 6,2 C 88 % 1011,1 hPa 0,0 mm 9,0 km/h (2 Bft) S-SO 202 0 min 0 W/m 4,4 C 4,3 C 9,0 km/h (2 Bft)
22/04/2012 00:40 6,2 C 88 % 1011,2 hPa 0,0 mm 9,7 km/h (2 Bft) O-SO 247 0 min 0 W/m 4,4 C 4,2 C 14,4 km/h (3 Bft)
22/04/2012 00:50 6,1 C 88 % 1011,3 hPa 0,0 mm 6,1 km/h (2 Bft) SO 225 0 min 0 W/m 4,3 C 5,0 C 8,3 km/h (2 Bft)
22/04/2012 01:00 6,1 C 89 % 1011,3 hPa 0,0 mm 2,2 km/h (1 Bft) O-SO 247 0 min 0 W/m 4,4 C 6,1 C 4,3 km/h (1 Bft)
22/04/2012 01:10 5,9 C 89 % 1011,3 hPa 0,0 mm 7,6 km/h (2 Bft) SO 225 0 min 0 W/m 4,2 C 4,3 C 11,5 km/h (2 Bft)
22/04/2012 01:20 5,8 C 89 % 1011,3 hPa 0,0 mm 8,6 km/h (2 Bft) S-SO 202 0 min 0 W/m 4,1 C 3,9 C 13,7 km/h (3 Bft)
22/04/2012 01:30 5,8 C 89 % 1011,3 hPa 0,0 mm 4,0 km/h (1 Bft) SO 225 0 min 0 W/m 4,1 C 5,8 C 4,0 km/h (1 Bft)
22/04/2012 01:40 5,8 C 90 % 1011,5 hPa 0,0 mm 4,3 km/h (1 Bft) SO 225 0 min 0 W/m 4,3 C 5,8 C 7,9 km/h (2 Bft)
22/04/2012 01:50 5,9 C 90 % 1011,5 hPa 0,0 mm 9,4 km/h (2 Bft) SO 225 0 min 0 W/m 4,4 C 3,9 C 14,8 km/h (3 Bft)
22/04/2012 02:00 5,8 C 90 % 1011,5 hPa 0,0 mm 8,3 km/h (2 Bft) SO 225 0 min 0 W/m 4,3 C 4,0 C 13,7 km/h (3 Bft)
22/04/2012 02:10 5,8 C 90 % 1011,5 hPa 0,1 mm 7,2 km/h (2 Bft) S-SO 202 0 min 0 W/m 4,3 C 4,3 C 10,8 km/h (2 Bft)
22/04/2012 02:20 5,8 C 89 % 1011,5 hPa 0,0 mm 10,8 km/h (2 Bft) O-SO 247 0 min 0 W/m 4,1 C 3,5 C 16,6 km/h (3 Bft)
22/04/2012 02:30 5,8 C 89 % 1011,5 hPa 0,0 mm 7,2 km/h (2 Bft) SO 225 0 min 0 W/m 4,1 C 4,3 C 8,6 km/h (2 Bft)
22/04/2012 02:40 5,8 C 90 % 1011,4 hPa 0,0 mm 10,4 km/h (2 Bft) S-SO 202 0 min 0 W/m 4,3 C 3,5 C 13,7 km/h (3 Bft)
22/04/2012 02:50 5,8 C 89 % 1011,5 hPa 0,0 mm 6,5 km/h (2 Bft) SO 225 0 min 0 W/m 4,1 C 4,5 C 6,5 km/h (2 Bft)
22/04/2012 03:02 5,8 C 89 % 1011,5 hPa 0,0 mm 4,0 km/h (1 Bft) SO 225 0 min 0 W/m 4,1 C 5,8 C 6,8 km/h (2 Bft)
22/04/2012 03:10 5,8 C 88 % 1011,4 hPa 0,0 mm 6,5 km/h (2 Bft) S-SO 202 0 min 0 W/m 4,0 C 4,5 C 14,8 km/h (3 Bft)
22/04/2012 03:20 5,8 C 88 % 1011,4 hPa 0,0 mm 9,7 km/h (2 Bft) SO 225 0 min 0 W/m 4,0 C 3,7 C 15,1 km/h (3 Bft)
22/04/2012 03:30 5,6 C 88 % 1011,4 hPa 0,0 mm 8,6 km/h (2 Bft) S-SO 202 0 min 0 W/m 3,8 C 3,7 C 10,4 km/h (2 Bft)
22/04/2012 03:40 5,4 C 88 % 1011,3 hPa 0,0 mm 3,6 km/h (1 Bft) S-SO 202 0 min 0 W/m 3,6 C 5,4 C 8,6 km/h (2 Bft)
22/04/2012 03:50 5,2 C 88 % 1011,4 hPa 0,0 mm 3,6 km/h (1 Bft) O-SO 247 0 min 0 W/m 3,4 C 5,2 C 5,8 km/h (2 Bft)
22/04/2012 04:00 5,1 C 88 % 1011,4 hPa 0,0 mm 4,0 km/h (1 Bft) SO 225 0 min 0 W/m 3,3 C 5,1 C 4,3 km/h (1 Bft)
22/04/2012 04:10 5,0 C 88 % 1011,3 hPa 0,0 mm 5,8 km/h (2 Bft) SO 225 0 min 0 W/m 3,2 C 3,8 C 5,8 km/h (2 Bft)
22/04/2012 04:20 4,9 C 89 % 1011,3 hPa 0,0 mm 5,8 km/h (2 Bft) SO 225 0 min 0 W/m 3,2 C 3,7 C 8,3 km/h (2 Bft)
22/04/2012 04:30 4,8 C 89 % 1011,3 hPa 0,0 mm 4,3 km/h (1 Bft) SO 225 0 min 0 W/m 3,1 C 4,8 C 8,3 km/h (2 Bft)
22/04/2012 04:40 4,8 C 88 % 1011,3 hPa 0,0 mm 5,8 km/h (2 Bft) SO 225 0 min 0 W/m 3,0 C 3,6 C 8,6 km/h (2 Bft)
22/04/2012 04:50 4,8 C 88 % 1011,3 hPa 0,0 mm 6,5 km/h (2 Bft) S-SO 202 0 min 0 W/m 3,0 C 3,3 C 10,1 km/h (2 Bft)
22/04/2012 05:00 4,6 C 89 % 1011,4 hPa 0,0 mm 5,4 km/h (2 Bft) SO 225 0 min 0 W/m 2,9 C 3,5 C 6,8 km/h (2 Bft)
22/04/2012 05:10 4,6 C 89 % 1011,4 hPa 0,0 mm 5,8 km/h (2 Bft) S-SO 202 0 min 0 W/m 2,9 C 3,3 C 8,6 km/h (2 Bft)
22/04/2012 05:20 4,5 C 90 % 1011,3 hPa 0,0 mm 5,8 km/h (2 Bft) SO 225 0 min 0 W/m 3,0 C 3,2 C 5,8 km/h (2 Bft)
22/04/2012 05:30 4,5 C 90 % 1011,3 hPa 0,0 mm 5,8 km/h (2 Bft) SO 225 0 min 0 W/m 3,0 C 3,2 C 5,8 km/h (2 Bft)
22/04/2012 05:40 4,4 C 90 % 1011,3 hPa 0,0 mm 3,2 km/h (1 Bft) SO 225 0 min 0 W/m 2,9 C 4,4 C 6,8 km/h (2 Bft)
22/04/2012 05:50 4,3 C 90 % 1011,2 hPa 0,0 mm 4,3 km/h (1 Bft) S-SO 202 0 min 0 W/m 2,8 C 4,3 C 4,3 km/h (1 Bft)
22/04/2012 06:00 4,3 C 91 % 1011,2 hPa 0,0 mm 6,8 km/h (2 Bft) S-SO 202 0 min 0 W/m 3,0 C 2,7 C 9,0 km/h (2 Bft)
22/04/2012 06:10 4,4 C 91 % 1011,1 hPa 0,0 mm 2,9 km/h (1 Bft) SO 225 0 min 0 W/m 3,1 C 4,4 C 4,0 km/h (1 Bft)
22/04/2012 06:20 4,3 C 91 % 1011,0 hPa 0,0 mm 6,5 km/h (2 Bft) SO 225 0 min 0 W/m 3,0 C 2,8 C 8,6 km/h (2 Bft)
22/04/2012 06:30 4,3 C 91 % 1011,0 hPa 0,0 mm 5,4 km/h (2 Bft) S-SO 202 0 min 0 W/m 3,0 C 3,1 C 8,3 km/h (2 Bft)
22/04/2012 06:40 4,2 C 91 % 1011,2 hPa 0,0 mm 7,2 km/h (2 Bft) SO 225 0 min 0 W/m 2,9 C 2,4 C 7,6 km/h (2 Bft)
22/04/2012 06:50 4,1 C 91 % 1011,3 hPa 0,0 mm 5,8 km/h (2 Bft) SO 225 0 min 0 W/m 2,8 C 2,8 C 10,4 km/h (2 Bft)
22/04/2012 07:00 4,1 C 91 % 1011,3 hPa 0,0 mm 5,8 km/h (2 Bft) SO 225 0 min 0 W/m 2,8 C 2,8 C 10,4 km/h (2 Bft)
22/04/2012 07:10 4,1 C 92 % 1011,4 hPa 0,0 mm 7,2 km/h (2 Bft) SO 225 2 min 0 W/m 2,9 C 2,3 C 10,8 km/h (2 Bft)
22/04/2012 07:20 4,2 C 92 % 1011,4 hPa 0,0 mm 7,9 km/h (2 Bft) SO 225 2 min 0 W/m 3,0 C 2,2 C 7,9 km/h (2 Bft)
22/04/2012 07:30 4,3 C 92 % 1011,5 hPa 0,0 mm 6,1 km/h (2 Bft) S-SO 202 2 min 0 W/m 3,1 C 2,9 C 11,5 km/h (2 Bft)
22/04/2012 07:40 4,4 C 92 % 1011,6 hPa 0,0 mm 4,3 km/h (1 Bft) SO 225 2 min 0 W/m 3,2 C 4,4 C 8,6 km/h (2 Bft)
22/04/2012 07:50 4,6 C 92 % 1011,6 hPa 0,0 mm 6,8 km/h (2 Bft) O-SO 247 2 min 0 W/m 3,4 C 3,0 C 11,9 km/h (2 Bft)
22/04/2012 08:00 4,8 C 93 % 1011,7 hPa 0,0 mm 8,6 km/h (2 Bft) SO 225 2 min 0 W/m 3,8 C 2,7 C 8,6 km/h (2 Bft)
22/04/2012 08:10 5,1 C 92 % 1011,8 hPa 0,0 mm 4,0 km/h (1 Bft) O-SO 247 2 min 0 W/m 3,9 C 5,1 C 4,0 km/h (1 Bft)
22/04/2012 08:20 5,4 C 91 % 1011,8 hPa 0,0 mm 8,6 km/h (2 Bft) SO 225 2 min 0 W/m 4,1 C 3,5 C 8,6 km/h (2 Bft)
22/04/2012 08:30 5,8 C 90 % 1011,9 hPa 0,0 mm 10,1 km/h (2 Bft) O-SO 247 2 min 0 W/m 4,3 C 3,6 C 11,9 km/h (2 Bft)
22/04/2012 08:40 6,1 C 89 % 1012,0 hPa 0,0 mm 5,4 km/h (2 Bft) S-SO 202 2 min 0 W/m 4,4 C 5,2 C 8,6 km/h (2 Bft)
22/04/2012 08:50 6,4 C 88 % 1012,0 hPa 0,0 mm 6,8 km/h (2 Bft) S-SO 202 2 min 0 W/m 4,6 C 5,1 C 9,4 km/h (2 Bft)
22/04/2012 09:00 6,6 C 88 % 1012,0 hPa 0,0 mm 7,9 km/h (2 Bft) O 270 2 min 0 W/m 4,8 C 5,0 C 9,7 km/h (2 Bft)
22/04/2012 09:10 6,8 C 87 % 1012,1 hPa 0,0 mm 6,5 km/h (2 Bft) SO 225 2 min 0 W/m 4,8 C 5,6 C 7,2 km/h (2 Bft)
22/04/2012 09:20 6,9 C 87 % 1012,0 hPa 0,0 mm 7,9 km/h (2 Bft) SO 225 2 min 0 W/m 4,9 C 5,4 C 9,4 km/h (2 Bft)
22/04/2012 09:30 7,6 C 85 % 1012,2 hPa 0,0 mm 9,0 km/h (2 Bft) SO 225 2 min 0 W/m 5,2 C 6,0 C 9,0 km/h (2 Bft)
22/04/2012 09:40 8,0 C 85 % 1012,3 hPa 0,0 mm 6,8 km/h (2 Bft) S-SO 202 2 min 0 W/m 5,6 C 7,0 C 10,1 km/h (2 Bft)
22/04/2012 09:50 8,5 C 83 % 1012,4 hPa 0,0 mm 9,7 km/h (2 Bft) S-SO 202 2 min 0 W/m 5,8 C 6,9 C 13,3 km/h (3 Bft)
22/04/2012 10:00 8,8 C 83 % 1012,4 hPa 0,0 mm 7,6 km/h (2 Bft) O-SO 247 2 min 0 W/m 6,1 C 7,7 C 10,1 km/h (2 Bft)
22/04/2012 10:10 9,1 C 81 % 1012,3 hPa 0,0 mm 10,8 km/h (2 Bft) S-SO 202 2 min 0 W/m 6,0 C 7,4 C 14,8 km/h (3 Bft)
22/04/2012 10:20 9,3 C 80 % 1012,4 hPa 0,0 mm 2,9 km/h (1 Bft) O 270 2 min 0 W/m 6,0 C 9,3 C 6,8 km/h (2 Bft)
22/04/2012 10:30 9,2 C 82 % 1012,5 hPa 0,0 mm 6,8 km/h (2 Bft) S-SO 202 2 min 0 W/m 6,3 C 8,3 C 10,4 km/h (2 Bft)
22/04/2012 10:40 9,7 C 81 % 1012,6 hPa 0,0 mm 4,7 km/h (1 Bft) S 180 2 min 0 W/m 6,6 C 9,5 C 7,2 km/h (2 Bft)
22/04/2012 10:50 9,4 C 81 % 1012,5 hPa 0,0 mm 7,2 km/h (2 Bft) SO 225 2 min 0 W/m 6,3 C 8,5 C 11,2 km/h (2 Bft)
22/04/2012 11:00 9,4 C 80 % 1012,4 hPa 0,0 mm 6,5 km/h (2 Bft) S-SO 202 2 min 0 W/m 6,1 C 8,7 C 12,6 km/h (3 Bft)
22/04/2012 11:10 9,2 C 80 % 1012,5 hPa 0,1 mm 6,5 km/h (2 Bft) S-SO 202 2 min 0 W/m 5,9 C 8,4 C 12,2 km/h (2 Bft)
22/04/2012 11:20 9,5 C 82 % 1012,5 hPa 0,0 mm 6,8 km/h (2 Bft) S-SO 202 2 min 0 W/m 6,6 C 8,7 C 10,8 km/h (2 Bft)
22/04/2012 11:30 10,1 C 77 % 1012,4 hPa 0,0 mm 11,9 km/h (2 Bft) S 180 2 min 0 W/m 6,3 C 10,1 C 11,9 km/h (2 Bft)
22/04/2012 11:40 10,6 C 75 % 1012,5 hPa 0,0 mm 6,5 km/h (2 Bft) SO 225 2 min 0 W/m 6,4 C 10,6 C 8,3 km/h (2 Bft)
22/04/2012 11:50 10,6 C 73 % 1012,4 hPa 0,0 mm 8,3 km/h (2 Bft) S-SO 202 2 min 0 W/m 6,0 C 10,6 C 9,4 km/h (2 Bft)
22/04/2012 12:00 11,0 C 71 % 1012,3 hPa 0,0 mm 6,8 km/h (2 Bft) S-SO 202 2 min 0 W/m 5,9 C 11,0 C 6,8 km/h (2 Bft)
22/04/2012 12:10 11,4 C 71 % 1012,3 hPa 0,0 mm 9,0 km/h (2 Bft) O-SO 247 2 min 0 W/m 6,3 C 11,4 C 9,0 km/h (2 Bft)
22/04/2012 12:20 11,2 C 71 % 1012,3 hPa 0,0 mm 4,0 km/h (1 Bft) S-SO 202 2 min 0 W/m 6,1 C 11,2 C 7,2 km/h (2 Bft)
22/04/2012 12:30 11,6 C 71 % 1012,1 hPa 0,0 mm 6,1 km/h (2 Bft) SO 225 2 min 0 W/m 6,5 C 11,6 C 10,8 km/h (2 Bft)
22/04/2012 12:40 12,1 C 68 % 1012,0 hPa 0,0 mm 9,0 km/h (2 Bft) SO 225 2 min 0 W/m 6,4 C 12,1 C 9,0 km/h (2 Bft)
22/04/2012 12:50 11,4 C 69 % 1012,1 hPa 0,0 mm 8,3 km/h (2 Bft) SO 225 2 min 0 W/m 5,9 C 11,4 C 13,3 km/h (3 Bft)
22/04/2012 13:00 10,3 C 74 % 1012,3 hPa 0,0 mm 15,8 km/h (3 Bft) SO 225 2 min 0 W/m 5,9 C 10,3 C 15,8 km/h (3 Bft)
22/04/2012 13:10 9,4 C 75 % 1012,8 hPa 0,0 mm 5,0 km/h (1 Bft) E 90 2 min 0 W/m 5,2 C 9,1 C 5,0 km/h (1 Bft)
22/04/2012 13:20 8,9 C 79 % 1012,6 hPa 0,0 mm 5,8 km/h (2 Bft) O 270 2 min 0 W/m 5,5 C 8,3 C 5,8 km/h (2 Bft)
22/04/2012 13:30 9,4 C 81 % 1012,5 hPa 0,0 mm 5,0 km/h (1 Bft) S-SO 202 2 min 0 W/m 6,3 C 9,1 C 10,1 km/h (2 Bft)
22/04/2012 13:40 10,2 C 77 % 1012,3 hPa 0,0 mm 4,0 km/h (1 Bft) S-SO 202 2 min 0 W/m 6,4 C 10,2 C 8,3 km/h (2 Bft)
22/04/2012 13:50 10,6 C 76 % 1012,1 hPa 0,0 mm 6,8 km/h (2 Bft) O-SO 247 2 min 0 W/m 6,5 C 10,6 C 8,6 km/h (2 Bft)
22/04/2012 14:00 11,0 C 74 % 1012,1 hPa 0,0 mm 3,2 km/h (1 Bft) S 180 2 min 0 W/m 6,5 C 11,0 C 7,6 km/h (2 Bft)
22/04/2012 14:10 11,1 C 74 % 1012,0 hPa 0,0 mm 2,5 km/h (1 Bft) O-SO 247 2 min 0 W/m 6,6 C 11,1 C 6,1 km/h (2 Bft)
22/04/2012 14:20 10,8 C 76 % 1012,0 hPa 0,0 mm 6,5 km/h (2 Bft) S-SO 202 2 min 0 W/m 6,7 C 10,8 C 12,6 km/h (3 Bft)
22/04/2012 14:30 10,2 C 79 % 1011,9 hPa 0,0 mm 5,8 km/h (2 Bft) SO 225 2 min 0 W/m 6,7 C 10,2 C 8,3 km/h (2 Bft)
22/04/2012 14:40 9,8 C 77 % 1011,9 hPa 0,0 mm 7,6 km/h (2 Bft) O-SO 247 2 min 0 W/m 6,0 C 8,9 C 10,1 km/h (2 Bft)
22/04/2012 14:50 9,6 C 78 % 1011,9 hPa 0,0 mm 11,9 km/h (2 Bft) S-SO 202 2 min 0 W/m 6,0 C 7,8 C 16,9 km/h (3 Bft)
22/04/2012 15:00 9,6 C 79 % 1011,7 hPa 0,0 mm 6,8 km/h (2 Bft) S-SO 202 2 min 0 W/m 6,1 C 8,8 C 11,9 km/h (2 Bft)
22/04/2012 15:10 10,1 C 77 % 1011,7 hPa 0,0 mm 7,9 km/h (2 Bft) SO 225 2 min 0 W/m 6,3 C 10,1 C 9,4 km/h (2 Bft)
22/04/2012 15:20 10,8 C 75 % 1011,8 hPa 0,0 mm 4,3 km/h (1 Bft) SO 225 2 min 0 W/m 6,5 C 10,8 C 8,6 km/h (2 Bft)
22/04/2012 15:30 11,2 C 74 % 1011,6 hPa 0,0 mm 4,3 km/h (1 Bft) O-SO 247 2 min 0 W/m 6,7 C 11,2 C 4,3 km/h (1 Bft)
22/04/2012 15:40 11,4 C 73 % 1012,0 hPa 0,0 mm 13,3 km/h (3 Bft) N-NO 337 2 min 0 W/m 6,7 C 11,4 C 21,6 km/h (4 Bft)
22/04/2012 15:50 9,8 C 74 % 1012,1 hPa 0,6 mm 4,3 km/h (1 Bft) SO 225 2 min 0 W/m 5,4 C 9,8 C 4,3 km/h (1 Bft)
22/04/2012 16:00 8,6 C 79 % 1011,6 hPa 0,2 mm 2,5 km/h (1 Bft) O 270 2 min 0 W/m 5,2 C 8,6 C 6,5 km/h (2 Bft)
22/04/2012 16:10 8,5 C 84 % 1011,4 hPa 0,0 mm 6,1 km/h (2 Bft) O-SO 247 2 min 0 W/m 6,0 C 7,7 C 7,9 km/h (2 Bft)
22/04/2012 16:20 9,1 C 84 % 1011,3 hPa 0,0 mm 3,2 km/h (1 Bft) O-SO 247 2 min 0 W/m 6,5 C 9,1 C 3,6 km/h (1 Bft)
22/04/2012 16:30 9,8 C 84 % 1011,1 hPa 0,0 mm 4,7 km/h (1 Bft) S-SO 202 2 min 0 W/m 7,2 C 9,6 C 4,7 km/h (1 Bft)
22/04/2012 16:40 10,4 C 81 % 1011,0 hPa 0,0 mm 9,4 km/h (2 Bft) O-SO 247 2 min 0 W/m 7,3 C 10,4 C 18,0 km/h (3 Bft)
22/04/2012 16:50 10,6 C 78 % 1011,2 hPa 0,0 mm 5,8 km/h (2 Bft) S-SO 202 2 min 0 W/m 6,9 C 10,6 C 11,5 km/h (2 Bft)
22/04/2012 17:00 9,9 C 77 % 1010,8 hPa 0,2 mm 1,1 km/h (1 Bft) O-SO 247 2 min 0 W/m 6,1 C 9,9 C 3,6 km/h (1 Bft)
22/04/2012 17:10 9,6 C 81 % 1010,8 hPa 0,0 mm 4,3 km/h (1 Bft) SO 225 2 min 0 W/m 6,5 C 9,6 C 4,3 km/h (1 Bft)
22/04/2012 17:20 9,9 C 83 % 1010,9 hPa 0,0 mm 2,9 km/h (1 Bft) SO 225 2 min 0 W/m 7,2 C 9,9 C 7,9 km/h (2 Bft)
22/04/2012 17:30 10,6 C 80 % 1010,7 hPa 0,0 mm 6,5 km/h (2 Bft) O-SO 247 2 min 0 W/m 7,3 C 10,6 C 8,3 km/h (2 Bft)
22/04/2012 17:40 11,1 C 74 % 1010,6 hPa 0,0 mm 9,7 km/h (2 Bft) O-NO 292 2 min 0 W/m 6,6 C 11,1 C 13,3 km/h (3 Bft)
22/04/2012 17:50 11,4 C 71 % 1010,5 hPa 0,0 mm 5,0 km/h (1 Bft) O-SO 247 2 min 0 W/m 6,3 C 11,4 C 6,5 km/h (2 Bft)
22/04/2012 18:00 11,3 C 72 % 1010,5 hPa 0,0 mm 5,8 km/h (2 Bft) SO 225 2 min 0 W/m 6,4 C 11,3 C 8,6 km/h (2 Bft)
22/04/2012 18:10 11,3 C 73 % 1010,5 hPa 0,0 mm 2,2 km/h (1 Bft) SO 225 2 min 0 W/m 6,6 C 11,3 C 4,3 km/h (1 Bft)
22/04/2012 18:20 11,2 C 72 % 1010,5 hPa 0,0 mm 4,0 km/h (1 Bft) O-NO 292 2 min 0 W/m 6,3 C 11,2 C 10,4 km/h (2 Bft)
22/04/2012 18:30 10,9 C 73 % 1010,7 hPa 0,0 mm 1,8 km/h (1 Bft) SO 225 2 min 0 W/m 6,3 C 10,9 C 7,6 km/h (2 Bft)
22/04/2012 18:40 10,6 C 73 % 1010,6 hPa 0,0 mm 11,5 km/h (2 Bft) O 270 2 min 0 W/m 6,0 C 10,6 C 11,5 km/h (2 Bft)
22/04/2012 18:50 10,4 C 73 % 1010,6 hPa 0,0 mm 3,2 km/h (1 Bft) O 270 2 min 0 W/m 5,8 C 10,4 C 4,3 km/h (1 Bft)
22/04/2012 19:00 10,3 C 74 % 1010,7 hPa 0,0 mm 5,0 km/h (1 Bft) O-SO 247 2 min 0 W/m 5,9 C 10,3 C 10,8 km/h (2 Bft)
22/04/2012 19:10 10,5 C 73 % 1010,7 hPa 0,0 mm 6,1 km/h (2 Bft) O 270 2 min 0 W/m 5,9 C 10,5 C 9,4 km/h (2 Bft)
22/04/2012 19:20 10,8 C 73 % 1010,7 hPa 0,0 mm 9,4 km/h (2 Bft) SO 225 2 min 0 W/m 6,2 C 10,8 C 13,7 km/h (3 Bft)
22/04/2012 19:30 10,8 C 72 % 1010,7 hPa 0,0 mm 4,0 km/h (1 Bft) O-SO 247 2 min 0 W/m 6,0 C 10,8 C 13,7 km/h (3 Bft)
22/04/2012 19:40 10,5 C 72 % 1010,7 hPa 0,0 mm 3,2 km/h (1 Bft) SO 225 2 min 0 W/m 5,7 C 10,5 C 4,3 km/h (1 Bft)
22/04/2012 19:50 10,3 C 71 % 1010,9 hPa 0,0 mm 8,6 km/h (2 Bft) O 270 2 min 0 W/m 5,3 C 10,3 C 15,5 km/h (3 Bft)
22/04/2012 20:00 9,9 C 74 % 1010,9 hPa 0,0 mm 7,2 km/h (2 Bft) O-SO 247 2 min 0 W/m 5,5 C 9,1 C 11,5 km/h (2 Bft)
22/04/2012 20:10 9,4 C 75 % 1010,8 hPa 0,0 mm 6,5 km/h (2 Bft) O-SO 247 2 min 0 W/m 5,2 C 8,7 C 6,5 km/h (2 Bft)
22/04/2012 20:20 9,1 C 76 % 1011,0 hPa 0,0 mm 5,8 km/h (2 Bft) SO 225 2 min 0 W/m 5,1 C 8,5 C 10,4 km/h (2 Bft)
22/04/2012 20:30 8,6 C 78 % 1011,1 hPa 0,0 mm 5,0 km/h (1 Bft) SO 225 2 min 0 W/m 5,0 C 8,2 C 8,3 km/h (2 Bft)
22/04/2012 20:40 8,1 C 80 % 1011,2 hPa 0,0 mm 3,2 km/h (1 Bft) SO 225 2 min 0 W/m 4,9 C 8,1 C 4,3 km/h (1 Bft)
22/04/2012 20:50 7,6 C 82 % 1011,3 hPa 0,0 mm 2,5 km/h (1 Bft) S-SO 202 0 min 0 W/m 4,7 C 7,6 C 4,0 km/h (1 Bft)
22/04/2012 21:00 7,4 C 82 % 1011,3 hPa 0,0 mm 4,0 km/h (1 Bft) S-SO 202 0 min 0 W/m 4,5 C 7,4 C 4,0 km/h (1 Bft)
22/04/2012 21:10 7,1 C 83 % 1011,3 hPa 0,0 mm 1,8 km/h (1 Bft) SO 225 0 min 0 W/m 4,4 C 7,1 C 1,8 km/h (1 Bft)
22/04/2012 21:20 6,8 C 84 % 1011,4 hPa 0,0 mm 1,8 km/h (1 Bft) S-SO 202 0 min 0 W/m 4,3 C 6,8 C 1,8 km/h (1 Bft)
22/04/2012 21:30 6,8 C 84 % 1011,4 hPa 0,0 mm 2,2 km/h (1 Bft) SO 225 0 min 0 W/m 4,3 C 6,8 C 2,9 km/h (1 Bft)
22/04/2012 21:40 6,6 C 85 % 1011,5 hPa 0,0 mm 2,5 km/h (1 Bft) SO 225 0 min 0 W/m 4,3 C 6,6 C 9,7 km/h (2 Bft)
22/04/2012 21:50 6,5 C 86 % 1011,6 hPa 0,0 mm 5,0 km/h (1 Bft) S-SO 202 0 min 0 W/m 4,3 C 5,8 C 8,3 km/h (2 Bft)
22/04/2012 22:00 6,5 C 85 % 1011,7 hPa 0,0 mm 5,4 km/h (2 Bft) SO 225 0 min 0 W/m 4,2 C 5,6 C 11,2 km/h (2 Bft)
22/04/2012 22:10 6,4 C 84 % 1011,8 hPa 0,0 mm 6,5 km/h (2 Bft) SO 225 0 min 0 W/m 3,9 C 5,2 C 7,9 km/h (2 Bft)
22/04/2012 22:20 6,4 C 83 % 1011,8 hPa 0,0 mm 2,2 km/h (1 Bft) SO 225 0 min 0 W/m 3,7 C 6,4 C 4,3 km/h (1 Bft)
22/04/2012 22:30 6,4 C 83 % 1011,9 hPa 0,0 mm 4,0 km/h (1 Bft) S-SO 202 0 min 0 W/m 3,7 C 6,4 C 6,8 km/h (2 Bft)
22/04/2012 22:40 6,3 C 83 % 1011,8 hPa 0,0 mm 4,3 km/h (1 Bft) SO 225 0 min 0 W/m 3,6 C 6,3 C 8,3 km/h (2 Bft)
22/04/2012 22:50 6,3 C 83 % 1011,9 hPa 0,0 mm 4,3 km/h (1 Bft) SO 225 0 min 0 W/m 3,6 C 6,3 C 7,9 km/h (2 Bft)
22/04/2012 23:00 6,0 C 84 % 1012,0 hPa 0,0 mm 7,2 km/h (2 Bft) SO 225 0 min 0 W/m 3,5 C 4,5 C 9,7 km/h (2 Bft)
22/04/2012 23:10 5,9 C 84 % 1012,0 hPa 0,0 mm 5,4 km/h (2 Bft) S-SO 202 0 min 0 W/m 3,4 C 5,0 C 7,2 km/h (2 Bft)
22/04/2012 23:20 5,8 C 84 % 1012,0 hPa 0,0 mm 4,3 km/h (1 Bft) S-SO 202 0 min 0 W/m 3,3 C 5,8 C 7,9 km/h (2 Bft)
22/04/2012 23:30 5,8 C 84 % 1012,0 hPa 0,0 mm 5,0 km/h (1 Bft) O-SO 247 0 min 0 W/m 3,3 C 5,0 C 5,0 km/h (1 Bft)
22/04/2012 23:40 5,7 C 85 % 1012,0 hPa 0,0 mm 6,5 km/h (2 Bft) SO 225 0 min 0 W/m 3,4 C 4,4 C 10,4 km/h (2 Bft)
_ Min-Heure 07:10 12:40 18:20 - 17:00 - - - - 07:00 07:20 21:20
Minimum _ 4,1 C 68 % 1010,5 hPa - 1,1 km/h (1 Bft) - - - - 2,8 C 2,2 C 1,8 km/h (1 Bft)
_ Max-Heure 12:40 08:00 13:10 15:50 13:00 - - 20:40 23:40 17:30 12:40 15:40
Maximum _ 12,1 C 93 % 1012,8 hPa 0,6 mm 15,8 km/h
SO (3 Bft)
- - 2 min 0 W/m 7,3 C 12,1 C 21,6 km/h
N-NO (4 Bft)
Moyenne _ 7,7 C 83 % 1011,6 hPa #1,2 mm 6,1 km/h (2 Bft) SO - #2:44 h 0 W/m 4,9 C 7,1 C 8,9 km/h (2 Bft)
Saint Bonnet de Bellac- Haute Vienne - France